sensor_id;sensor_type;location;lat;lon;timestamp;P1;durP1;ratioP1;P2;durP2;ratioP2
50379;SDS011;37474;59.468;18.040;2022-09-09T00:01:22;1.83;;;1.47;;
50379;SDS011;37474;59.468;18.040;2022-09-09T00:04:03;1.67;;;1.58;;
50379;SDS011;37474;59.468;18.040;2022-09-09T00:06:43;2.00;;;1.47;;
50379;SDS011;37474;59.468;18.040;2022-09-09T00:09:15;1.53;;;1.37;;
50379;SDS011;37474;59.468;18.040;2022-09-09T00:11:47;1.80;;;1.70;;
50379;SDS011;37474;59.468;18.040;2022-09-09T00:14:22;2.33;;;1.50;;
50379;SDS011;37474;59.468;18.040;2022-09-09T00:17:01;1.87;;;1.50;;
50379;SDS011;37474;59.468;18.040;2022-09-09T00:19:36;1.67;;;1.33;;
50379;SDS011;37474;59.468;18.040;2022-09-09T00:22:14;1.87;;;1.50;;
50379;SDS011;37474;59.468;18.040;2022-09-09T00:24:46;2.20;;;1.57;;
50379;SDS011;37474;59.468;18.040;2022-09-09T00:27:24;1.60;;;1.50;;
50379;SDS011;37474;59.468;18.040;2022-09-09T00:30:02;2.67;;;1.60;;
50379;SDS011;37474;59.468;18.040;2022-09-09T00:32:43;5.10;;;1.60;;
50379;SDS011;37474;59.468;18.040;2022-09-09T00:35:16;1.50;;;1.40;;
50379;SDS011;37474;59.468;18.040;2022-09-09T00:37:48;1.87;;;1.63;;
50379;SDS011;37474;59.468;18.040;2022-09-09T00:40:22;3.37;;;1.50;;
50379;SDS011;37474;59.468;18.040;2022-09-09T00:43:02;1.83;;;1.40;;
50379;SDS011;37474;59.468;18.040;2022-09-09T00:45:58;1.57;;;1.47;;
50379;SDS011;37474;59.468;18.040;2022-09-09T00:48:42;2.73;;;1.50;;
50379;SDS011;37474;59.468;18.040;2022-09-09T00:51:23;1.70;;;1.50;;
50379;SDS011;37474;59.468;18.040;2022-09-09T00:57:00;1.73;;;1.63;;
50379;SDS011;37474;59.468;18.040;2022-09-09T00:59:45;2.10;;;1.73;;
50379;SDS011;37474;59.468;18.040;2022-09-09T01:02:18;1.90;;;1.60;;
50379;SDS011;37474;59.468;18.040;2022-09-09T01:04:58;2.07;;;1.63;;
50379;SDS011;37474;59.468;18.040;2022-09-09T01:07:35;5.20;;;2.03;;
50379;SDS011;37474;59.468;18.040;2022-09-09T01:10:06;2.90;;;1.93;;
50379;SDS011;37474;59.468;18.040;2022-09-09T01:12:44;3.17;;;2.10;;
50379;SDS011;37474;59.468;18.040;2022-09-09T01:15:17;2.63;;;2.10;;
50379;SDS011;37474;59.468;18.040;2022-09-09T01:17:53;2.90;;;1.97;;
50379;SDS011;37474;59.468;18.040;2022-09-09T01:20:29;3.40;;;1.80;;
50379;SDS011;37474;59.468;18.040;2022-09-09T01:23:12;2.17;;;1.73;;
50379;SDS011;37474;59.468;18.040;2022-09-09T01:28:51;2.93;;;1.77;;
50379;SDS011;37474;59.468;18.040;2022-09-09T01:31:21;1.97;;;1.60;;
50379;SDS011;37474;59.468;18.040;2022-09-09T01:33:55;1.57;;;1.43;;
50379;SDS011;37474;59.468;18.040;2022-09-09T01:36:27;1.20;;;1.10;;
50379;SDS011;37474;59.468;18.040;2022-09-09T01:39:04;1.77;;;1.03;;
50379;SDS011;37474;59.468;18.040;2022-09-09T01:41:35;1.43;;;1.33;;
50379;SDS011;37474;59.468;18.040;2022-09-09T01:44:03;2.83;;;1.50;;
50379;SDS011;37474;59.468;18.040;2022-09-09T01:46:33;1.70;;;1.33;;
50379;SDS011;37474;59.468;18.040;2022-09-09T01:49:03;3.30;;;1.37;;
50379;SDS011;37474;59.468;18.040;2022-09-09T01:51:34;3.37;;;1.50;;
50379;SDS011;37474;59.468;18.040;2022-09-09T01:54:07;1.60;;;1.20;;
50379;SDS011;37474;59.468;18.040;2022-09-09T01:56:39;1.90;;;1.50;;
50379;SDS011;37474;59.468;18.040;2022-09-09T02:02:06;1.70;;;1.60;;
50379;SDS011;37474;59.468;18.040;2022-09-09T02:04:40;1.97;;;1.40;;
50379;SDS011;37474;59.468;18.040;2022-09-09T02:07:14;1.70;;;1.33;;
50379;SDS011;37474;59.468;18.040;2022-09-09T02:09:59;2.20;;;1.30;;
50379;SDS011;37474;59.468;18.040;2022-09-09T02:12:35;1.67;;;1.47;;
50379;SDS011;37474;59.468;18.040;2022-09-09T02:15:11;1.80;;;1.30;;
50379;SDS011;37474;59.468;18.040;2022-09-09T02:17:45;1.30;;;1.20;;
50379;SDS011;37474;59.468;18.040;2022-09-09T02:20:18;1.27;;;0.80;;
50379;SDS011;37474;59.468;18.040;2022-09-09T02:22:49;1.63;;;0.90;;
50379;SDS011;37474;59.468;18.040;2022-09-09T02:25:23;2.30;;;0.80;;
50379;SDS011;37474;59.468;18.040;2022-09-09T02:27:55;1.17;;;0.90;;
50379;SDS011;37474;59.468;18.040;2022-09-09T02:30:27;1.30;;;0.80;;
50379;SDS011;37474;59.468;18.040;2022-09-09T02:32:58;2.17;;;0.70;;
50379;SDS011;37474;59.468;18.040;2022-09-09T02:35:32;1.40;;;0.60;;
50379;SDS011;37474;59.468;18.040;2022-09-09T02:38:04;1.20;;;0.80;;
50379;SDS011;37474;59.468;18.040;2022-09-09T02:40:39;1.00;;;0.63;;
50379;SDS011;37474;59.468;18.040;2022-09-09T02:43:09;2.53;;;0.63;;
50379;SDS011;37474;59.468;18.040;2022-09-09T02:45:39;2.60;;;0.73;;
50379;SDS011;37474;59.468;18.040;2022-09-09T02:48:21;1.10;;;0.60;;
50379;SDS011;37474;59.468;18.040;2022-09-09T02:51:00;0.80;;;0.67;;
50379;SDS011;37474;59.468;18.040;2022-09-09T02:53:39;1.10;;;0.50;;
50379;SDS011;37474;59.468;18.040;2022-09-09T02:56:18;1.23;;;0.77;;
50379;SDS011;37474;59.468;18.040;2022-09-09T02:58:52;0.60;;;0.60;;
50379;SDS011;37474;59.468;18.040;2022-09-09T03:01:20;0.60;;;0.60;;
50379;SDS011;37474;59.468;18.040;2022-09-09T03:03:48;1.47;;;0.80;;
50379;SDS011;37474;59.468;18.040;2022-09-09T03:06:16;1.50;;;0.60;;
50379;SDS011;37474;59.468;18.040;2022-09-09T03:08:46;1.53;;;0.80;;
50379;SDS011;37474;59.468;18.040;2022-09-09T03:11:16;2.03;;;0.70;;
50379;SDS011;37474;59.468;18.040;2022-09-09T03:13:46;1.45;;;0.65;;
50379;SDS011;37474;59.468;18.040;2022-09-09T03:16:18;1.40;;;0.60;;
50379;SDS011;37474;59.468;18.040;2022-09-09T03:18:49;1.10;;;0.60;;
50379;SDS011;37474;59.468;18.040;2022-09-09T03:21:20;1.63;;;0.77;;
50379;SDS011;37474;59.468;18.040;2022-09-09T03:23:48;1.35;;;0.63;;
50379;SDS011;37474;59.468;18.040;2022-09-09T03:26:20;0.70;;;0.70;;
50379;SDS011;37474;59.468;18.040;2022-09-09T03:28:49;0.70;;;0.60;;
50379;SDS011;37474;59.468;18.040;2022-09-09T03:31:19;1.33;;;0.80;;
50379;SDS011;37474;59.468;18.040;2022-09-09T03:33:51;0.70;;;0.60;;
50379;SDS011;37474;59.468;18.040;2022-09-09T03:36:19;3.08;;;0.70;;
50379;SDS011;37474;59.468;18.040;2022-09-09T03:38:47;1.10;;;0.50;;
50379;SDS011;37474;59.468;18.040;2022-09-09T03:41:19;1.30;;;0.60;;
50379;SDS011;37474;59.468;18.040;2022-09-09T03:43:49;2.67;;;0.73;;
50379;SDS011;37474;59.468;18.040;2022-09-09T03:46:19;1.80;;;0.60;;
50379;SDS011;37474;59.468;18.040;2022-09-09T03:48:49;2.45;;;0.65;;
50379;SDS011;37474;59.468;18.040;2022-09-09T03:51:18;4.07;;;0.80;;
50379;SDS011;37474;59.468;18.040;2022-09-09T03:53:49;1.97;;;0.70;;
50379;SDS011;37474;59.468;18.040;2022-09-09T03:56:19;1.00;;;0.57;;
50379;SDS011;37474;59.468;18.040;2022-09-09T03:58:49;0.80;;;0.63;;
50379;SDS011;37474;59.468;18.040;2022-09-09T04:01:17;1.83;;;0.60;;
50379;SDS011;37474;59.468;18.040;2022-09-09T04:03:49;1.50;;;0.80;;
50379;SDS011;37474;59.468;18.040;2022-09-09T04:06:20;1.00;;;0.80;;
50379;SDS011;37474;59.468;18.040;2022-09-09T04:08:51;2.60;;;0.80;;
50379;SDS011;37474;59.468;18.040;2022-09-09T04:11:19;1.00;;;0.70;;
50379;SDS011;37474;59.468;18.040;2022-09-09T04:13:47;1.80;;;0.70;;
50379;SDS011;37474;59.468;18.040;2022-09-09T04:16:17;1.93;;;1.00;;
50379;SDS011;37474;59.468;18.040;2022-09-09T04:18:47;2.90;;;1.03;;
50379;SDS011;37474;59.468;18.040;2022-09-09T04:21:17;1.37;;;0.70;;
50379;SDS011;37474;59.468;18.040;2022-09-09T04:23:47;1.03;;;0.60;;
50379;SDS011;37474;59.468;18.040;2022-09-09T04:26:15;2.65;;;0.70;;
50379;SDS011;37474;59.468;18.040;2022-09-09T04:28:43;2.27;;;0.90;;
50379;SDS011;37474;59.468;18.040;2022-09-09T04:31:14;2.53;;;0.80;;
50379;SDS011;37474;59.468;18.040;2022-09-09T04:33:48;2.90;;;0.83;;
50379;SDS011;37474;59.468;18.040;2022-09-09T04:36:18;1.37;;;0.70;;
50379;SDS011;37474;59.468;18.040;2022-09-09T04:38:46;1.23;;;0.70;;
50379;SDS011;37474;59.468;18.040;2022-09-09T04:41:17;1.40;;;0.70;;
50379;SDS011;37474;59.468;18.040;2022-09-09T04:43:47;1.07;;;0.60;;
50379;SDS011;37474;59.468;18.040;2022-09-09T04:46:15;1.67;;;0.80;;
50379;SDS011;37474;59.468;18.040;2022-09-09T04:48:45;1.70;;;0.70;;
50379;SDS011;37474;59.468;18.040;2022-09-09T04:51:16;1.73;;;0.80;;
50379;SDS011;37474;59.468;18.040;2022-09-09T04:53:44;1.47;;;0.63;;
50379;SDS011;37474;59.468;18.040;2022-09-09T04:58:45;1.03;;;0.73;;
50379;SDS011;37474;59.468;18.040;2022-09-09T05:01:16;4.37;;;1.10;;
50379;SDS011;37474;59.468;18.040;2022-09-09T05:03:45;0.93;;;0.80;;
50379;SDS011;37474;59.468;18.040;2022-09-09T05:06:17;0.77;;;0.73;;
50379;SDS011;37474;59.468;18.040;2022-09-09T05:08:48;2.20;;;0.70;;
50379;SDS011;37474;59.468;18.040;2022-09-09T05:11:16;2.17;;;0.80;;
50379;SDS011;37474;59.468;18.040;2022-09-09T05:13:50;3.57;;;0.80;;
50379;SDS011;37474;59.468;18.040;2022-09-09T05:16:19;1.27;;;0.70;;
50379;SDS011;37474;59.468;18.040;2022-09-09T05:18:49;1.13;;;0.80;;
50379;SDS011;37474;59.468;18.040;2022-09-09T05:21:21;1.13;;;0.60;;
50379;SDS011;37474;59.468;18.040;2022-09-09T05:23:53;1.90;;;0.60;;
50379;SDS011;37474;59.468;18.040;2022-09-09T05:26:21;3.20;;;0.80;;
50379;SDS011;37474;59.468;18.040;2022-09-09T05:28:50;2.90;;;0.90;;
50379;SDS011;37474;59.468;18.040;2022-09-09T05:31:18;1.07;;;0.77;;
50379;SDS011;37474;59.468;18.040;2022-09-09T05:33:48;1.07;;;0.70;;
50379;SDS011;37474;59.468;18.040;2022-09-09T05:36:18;1.25;;;0.70;;
50379;SDS011;37474;59.468;18.040;2022-09-09T05:38:52;3.53;;;1.00;;
50379;SDS011;37474;59.468;18.040;2022-09-09T05:41:20;1.80;;;0.70;;
50379;SDS011;37474;59.468;18.040;2022-09-09T05:43:49;3.70;;;0.73;;
50379;SDS011;37474;59.468;18.040;2022-09-09T05:46:22;1.35;;;0.80;;
50379;SDS011;37474;59.468;18.040;2022-09-09T05:48:51;3.60;;;0.93;;
50379;SDS011;37474;59.468;18.040;2022-09-09T05:51:21;2.77;;;0.93;;
50379;SDS011;37474;59.468;18.040;2022-09-09T05:53:54;2.80;;;0.90;;
50379;SDS011;37474;59.468;18.040;2022-09-09T05:56:28;1.43;;;0.73;;
50379;SDS011;37474;59.468;18.040;2022-09-09T05:58:58;1.60;;;0.77;;
50379;SDS011;37474;59.468;18.040;2022-09-09T06:01:27;0.80;;;0.70;;
50379;SDS011;37474;59.468;18.040;2022-09-09T06:03:59;4.07;;;0.80;;
50379;SDS011;37474;59.468;18.040;2022-09-09T06:06:31;1.60;;;0.57;;
50379;SDS011;37474;59.468;18.040;2022-09-09T06:09:07;1.90;;;0.70;;
50379;SDS011;37474;59.468;18.040;2022-09-09T06:11:37;2.10;;;0.50;;
50379;SDS011;37474;59.468;18.040;2022-09-09T06:14:10;3.53;;;0.70;;
50379;SDS011;37474;59.468;18.040;2022-09-09T06:16:38;0.85;;;0.50;;
50379;SDS011;37474;59.468;18.040;2022-09-09T06:19:08;2.22;;;0.30;;
50379;SDS011;37474;59.468;18.040;2022-09-09T06:21:42;1.40;;;0.68;;
50379;SDS011;37474;59.468;18.040;2022-09-09T06:24:10;2.03;;;0.83;;
50379;SDS011;37474;59.468;18.040;2022-09-09T06:26:44;2.60;;;0.57;;
50379;SDS011;37474;59.468;18.040;2022-09-09T06:29:13;1.65;;;0.40;;
50379;SDS011;37474;59.468;18.040;2022-09-09T06:34:12;2.47;;;0.40;;
50379;SDS011;37474;59.468;18.040;2022-09-09T06:36:42;3.57;;;0.50;;
50379;SDS011;37474;59.468;18.040;2022-09-09T06:39:12;3.03;;;0.63;;
50379;SDS011;37474;59.468;18.040;2022-09-09T06:41:45;1.73;;;0.47;;
50379;SDS011;37474;59.468;18.040;2022-09-09T06:44:17;1.58;;;0.43;;
50379;SDS011;37474;59.468;18.040;2022-09-09T06:46:49;2.17;;;0.60;;
50379;SDS011;37474;59.468;18.040;2022-09-09T06:49:17;1.27;;;0.50;;
50379;SDS011;37474;59.468;18.040;2022-09-09T06:51:46;0.68;;;0.40;;
50379;SDS011;37474;59.468;18.040;2022-09-09T06:54:16;1.38;;;0.38;;
50379;SDS011;37474;59.468;18.040;2022-09-09T06:56:44;2.47;;;0.40;;
50379;SDS011;37474;59.468;18.040;2022-09-09T06:59:12;1.15;;;0.30;;
50379;SDS011;37474;59.468;18.040;2022-09-09T07:01:42;3.47;;;0.40;;
50379;SDS011;37474;59.468;18.040;2022-09-09T07:04:18;2.47;;;0.43;;
50379;SDS011;37474;59.468;18.040;2022-09-09T07:06:52;1.90;;;0.45;;
50379;SDS011;37474;59.468;18.040;2022-09-09T07:09:20;3.93;;;0.50;;
50379;SDS011;37474;59.468;18.040;2022-09-09T07:11:48;1.92;;;0.50;;
50379;SDS011;37474;59.468;18.040;2022-09-09T07:14:23;1.27;;;0.40;;
50379;SDS011;37474;59.468;18.040;2022-09-09T07:16:51;3.50;;;0.55;;
50379;SDS011;37474;59.468;18.040;2022-09-09T07:19:24;3.10;;;0.60;;
50379;SDS011;37474;59.468;18.040;2022-09-09T07:21:54;0.98;;;0.47;;
50379;SDS011;37474;59.468;18.040;2022-09-09T07:24:22;3.67;;;0.73;;
50379;SDS011;37474;59.468;18.040;2022-09-09T07:26:52;2.85;;;0.47;;
50379;SDS011;37474;59.468;18.040;2022-09-09T07:29:24;3.17;;;0.50;;
50379;SDS011;37474;59.468;18.040;2022-09-09T07:31:53;1.00;;;0.40;;
50379;SDS011;37474;59.468;18.040;2022-09-09T07:34:36;2.75;;;0.70;;
50379;SDS011;37474;59.468;18.040;2022-09-09T07:37:07;1.98;;;0.50;;
50379;SDS011;37474;59.468;18.040;2022-09-09T07:39:42;2.00;;;0.60;;
50379;SDS011;37474;59.468;18.040;2022-09-09T07:42:21;2.55;;;0.40;;
50379;SDS011;37474;59.468;18.040;2022-09-09T07:44:53;0.90;;;0.40;;
50379;SDS011;37474;59.468;18.040;2022-09-09T07:47:21;1.83;;;0.50;;
50379;SDS011;37474;59.468;18.040;2022-09-09T07:49:51;1.88;;;0.40;;
50379;SDS011;37474;59.468;18.040;2022-09-09T07:52:24;2.90;;;0.50;;
50379;SDS011;37474;59.468;18.040;2022-09-09T07:54:53;3.25;;;0.60;;
50379;SDS011;37474;59.468;18.040;2022-09-09T07:57:22;2.67;;;0.50;;
50379;SDS011;37474;59.468;18.040;2022-09-09T07:59:50;3.15;;;0.50;;
50379;SDS011;37474;59.468;18.040;2022-09-09T08:02:18;1.17;;;0.50;;
50379;SDS011;37474;59.468;18.040;2022-09-09T08:04:46;1.65;;;0.57;;
50379;SDS011;37474;59.468;18.040;2022-09-09T08:07:14;2.22;;;0.40;;
50379;SDS011;37474;59.468;18.040;2022-09-09T08:09:44;1.42;;;0.40;;
50379;SDS011;37474;59.468;18.040;2022-09-09T08:12:13;4.45;;;0.57;;
50379;SDS011;37474;59.468;18.040;2022-09-09T08:14:40;0.63;;;0.30;;
50379;SDS011;37474;59.468;18.040;2022-09-09T08:17:08;3.15;;;0.50;;
50379;SDS011;37474;59.468;18.040;2022-09-09T08:19:36;2.83;;;0.43;;
50379;SDS011;37474;59.468;18.040;2022-09-09T08:22:06;3.05;;;0.47;;
50379;SDS011;37474;59.468;18.040;2022-09-09T08:24:35;1.90;;;0.75;;
50379;SDS011;37474;59.468;18.040;2022-09-09T08:27:05;2.35;;;0.50;;
50379;SDS011;37474;59.468;18.040;2022-09-09T08:29:37;3.40;;;0.60;;
50379;SDS011;37474;59.468;18.040;2022-09-09T08:32:12;2.13;;;0.50;;
50379;SDS011;37474;59.468;18.040;2022-09-09T08:34:42;1.98;;;0.50;;
50379;SDS011;37474;59.468;18.040;2022-09-09T08:37:33;2.75;;;0.45;;
50379;SDS011;37474;59.468;18.040;2022-09-09T08:40:24;10.18;;;0.60;;
50379;SDS011;37474;59.468;18.040;2022-09-09T08:43:29;3.70;;;0.60;;
50379;SDS011;37474;59.468;18.040;2022-09-09T08:46:10;5.05;;;0.55;;
50379;SDS011;37474;59.468;18.040;2022-09-09T08:48:50;4.80;;;0.73;;
50379;SDS011;37474;59.468;18.040;2022-09-09T08:51:27;2.58;;;0.43;;
50379;SDS011;37474;59.468;18.040;2022-09-09T08:54:02;2.90;;;0.55;;
50379;SDS011;37474;59.468;18.040;2022-09-09T08:56:34;1.83;;;0.52;;
50379;SDS011;37474;59.468;18.040;2022-09-09T08:59:09;2.00;;;0.50;;
50379;SDS011;37474;59.468;18.040;2022-09-09T09:01:45;1.05;;;0.60;;
50379;SDS011;37474;59.468;18.040;2022-09-09T09:04:48;1.45;;;0.50;;
50379;SDS011;37474;59.468;18.040;2022-09-09T09:07:47;3.00;;;0.63;;
50379;SDS011;37474;59.468;18.040;2022-09-09T09:10:31;2.60;;;0.43;;
50379;SDS011;37474;59.468;18.040;2022-09-09T09:13:12;1.00;;;0.50;;
50379;SDS011;37474;59.468;18.040;2022-09-09T09:15:46;2.53;;;0.43;;
50379;SDS011;37474;59.468;18.040;2022-09-09T09:18:19;2.40;;;0.50;;
50379;SDS011;37474;59.468;18.040;2022-09-09T09:20:50;1.95;;;0.60;;
50379;SDS011;37474;59.468;18.040;2022-09-09T09:23:29;1.85;;;0.50;;
50379;SDS011;37474;59.468;18.040;2022-09-09T09:26:06;2.08;;;0.63;;
50379;SDS011;37474;59.468;18.040;2022-09-09T09:28:40;2.25;;;0.40;;
50379;SDS011;37474;59.468;18.040;2022-09-09T09:31:13;2.67;;;0.50;;
50379;SDS011;37474;59.468;18.040;2022-09-09T09:33:44;2.00;;;0.30;;
50379;SDS011;37474;59.468;18.040;2022-09-09T09:36:23;3.58;;;0.50;;
50379;SDS011;37474;59.468;18.040;2022-09-09T09:39:03;1.88;;;0.55;;
50379;SDS011;37474;59.468;18.040;2022-09-09T09:41:53;2.03;;;0.52;;
50379;SDS011;37474;59.468;18.040;2022-09-09T09:44:25;0.55;;;0.35;;
50379;SDS011;37474;59.468;18.040;2022-09-09T09:47:07;1.83;;;0.63;;
50379;SDS011;37474;59.468;18.040;2022-09-09T09:49:40;2.95;;;0.70;;
50379;SDS011;37474;59.468;18.040;2022-09-09T09:52:21;2.20;;;0.50;;
50379;SDS011;37474;59.468;18.040;2022-09-09T09:54:56;3.35;;;0.85;;
50379;SDS011;37474;59.468;18.040;2022-09-09T09:57:33;0.77;;;0.50;;
50379;SDS011;37474;59.468;18.040;2022-09-09T10:00:04;1.58;;;0.52;;
50379;SDS011;37474;59.468;18.040;2022-09-09T10:02:45;1.10;;;0.50;;
50379;SDS011;37474;59.468;18.040;2022-09-09T10:05:22;3.50;;;0.50;;
50379;SDS011;37474;59.468;18.040;2022-09-09T10:08:02;2.35;;;0.57;;
50379;SDS011;37474;59.468;18.040;2022-09-09T10:10:38;2.92;;;0.70;;
50379;SDS011;37474;59.468;18.040;2022-09-09T10:13:18;1.38;;;0.60;;
50379;SDS011;37474;59.468;18.040;2022-09-09T10:15:57;2.63;;;0.50;;
50379;SDS011;37474;59.468;18.040;2022-09-09T10:18:47;1.20;;;0.50;;
50379;SDS011;37474;59.468;18.040;2022-09-09T10:24:34;1.83;;;0.40;;
50379;SDS011;37474;59.468;18.040;2022-09-09T10:27:15;1.65;;;0.60;;
50379;SDS011;37474;59.468;18.040;2022-09-09T10:29:59;3.63;;;0.68;;
50379;SDS011;37474;59.468;18.040;2022-09-09T10:32:41;0.95;;;0.40;;
50379;SDS011;37474;59.468;18.040;2022-09-09T10:35:31;2.97;;;0.60;;
50379;SDS011;37474;59.468;18.040;2022-09-09T10:38:13;1.38;;;0.50;;
50379;SDS011;37474;59.468;18.040;2022-09-09T10:40:50;2.03;;;0.50;;
50379;SDS011;37474;59.468;18.040;2022-09-09T10:43:39;3.00;;;0.60;;
50379;SDS011;37474;59.468;18.040;2022-09-09T10:46:30;4.53;;;0.80;;
50379;SDS011;37474;59.468;18.040;2022-09-09T10:49:15;2.97;;;0.50;;
50379;SDS011;37474;59.468;18.040;2022-09-09T10:52:01;1.83;;;0.60;;
50379;SDS011;37474;59.468;18.040;2022-09-09T10:54:40;1.30;;;0.40;;
50379;SDS011;37474;59.468;18.040;2022-09-09T10:57:25;2.05;;;0.60;;
50379;SDS011;37474;59.468;18.040;2022-09-09T11:00:01;2.15;;;0.40;;
50379;SDS011;37474;59.468;18.040;2022-09-09T11:02:56;0.93;;;0.35;;
50379;SDS011;37474;59.468;18.040;2022-09-09T11:05:27;5.15;;;0.60;;
50379;SDS011;37474;59.468;18.040;2022-09-09T11:08:06;2.55;;;0.80;;
50379;SDS011;37474;59.468;18.040;2022-09-09T11:10:39;3.40;;;0.80;;
50379;SDS011;37474;59.468;18.040;2022-09-09T11:13:18;1.50;;;0.40;;
50379;SDS011;37474;59.468;18.040;2022-09-09T11:15:53;1.20;;;0.40;;
50379;SDS011;37474;59.468;18.040;2022-09-09T11:18:37;1.83;;;0.52;;
50379;SDS011;37474;59.468;18.040;2022-09-09T11:21:10;1.67;;;0.55;;
50379;SDS011;37474;59.468;18.040;2022-09-09T11:23:51;1.63;;;0.55;;
50379;SDS011;37474;59.468;18.040;2022-09-09T11:26:26;1.25;;;0.50;;
50379;SDS011;37474;59.468;18.040;2022-09-09T11:29:04;2.58;;;0.70;;
50379;SDS011;37474;59.468;18.040;2022-09-09T11:31:44;2.45;;;0.52;;
50379;SDS011;37474;59.468;18.040;2022-09-09T11:34:26;1.30;;;0.50;;
50379;SDS011;37474;59.468;18.040;2022-09-09T11:40:17;1.05;;;0.32;;
50379;SDS011;37474;59.468;18.040;2022-09-09T11:42:50;5.45;;;0.70;;
50379;SDS011;37474;59.468;18.040;2022-09-09T11:45:33;1.17;;;0.45;;
50379;SDS011;37474;59.468;18.040;2022-09-09T11:48:03;1.40;;;0.52;;
50379;SDS011;37474;59.468;18.040;2022-09-09T11:50:33;2.15;;;0.50;;
50379;SDS011;37474;59.468;18.040;2022-09-09T11:53:18;1.02;;;0.55;;
50379;SDS011;37474;59.468;18.040;2022-09-09T11:56:03;1.13;;;0.68;;
50379;SDS011;37474;59.468;18.040;2022-09-09T11:58:38;1.50;;;0.50;;
50379;SDS011;37474;59.468;18.040;2022-09-09T12:01:13;2.78;;;0.60;;
50379;SDS011;37474;59.468;18.040;2022-09-09T12:03:45;1.27;;;0.47;;
50379;SDS011;37474;59.468;18.040;2022-09-09T12:06:19;1.15;;;0.50;;
50379;SDS011;37474;59.468;18.040;2022-09-09T12:09:16;0.93;;;0.50;;
50379;SDS011;37474;59.468;18.040;2022-09-09T12:11:50;1.63;;;0.50;;
50379;SDS011;37474;59.468;18.040;2022-09-09T12:14:19;0.80;;;0.60;;
50379;SDS011;37474;59.468;18.040;2022-09-09T12:16:49;2.08;;;0.60;;
50379;SDS011;37474;59.468;18.040;2022-09-09T12:19:18;1.75;;;0.70;;
50379;SDS011;37474;59.468;18.040;2022-09-09T12:21:54;2.30;;;0.55;;
50379;SDS011;37474;59.468;18.040;2022-09-09T12:24:30;3.35;;;0.70;;
50379;SDS011;37474;59.468;18.040;2022-09-09T12:27:11;1.60;;;0.50;;
50379;SDS011;37474;59.468;18.040;2022-09-09T12:29:47;2.58;;;0.60;;
50379;SDS011;37474;59.468;18.040;2022-09-09T12:32:31;1.27;;;0.50;;
50379;SDS011;37474;59.468;18.040;2022-09-09T12:35:02;0.85;;;0.40;;
50379;SDS011;37474;59.468;18.040;2022-09-09T12:37:44;2.60;;;0.60;;
50379;SDS011;37474;59.468;18.040;2022-09-09T12:40:22;1.90;;;0.60;;
50379;SDS011;37474;59.468;18.040;2022-09-09T12:42:55;0.63;;;0.50;;
50379;SDS011;37474;59.468;18.040;2022-09-09T12:45:26;1.45;;;0.50;;
50379;SDS011;37474;59.468;18.040;2022-09-09T12:48:00;2.08;;;0.68;;
50379;SDS011;37474;59.468;18.040;2022-09-09T12:50:34;1.00;;;0.60;;
50379;SDS011;37474;59.468;18.040;2022-09-09T12:53:07;1.13;;;0.60;;
50379;SDS011;37474;59.468;18.040;2022-09-09T12:55:50;1.77;;;0.52;;
50379;SDS011;37474;59.468;18.040;2022-09-09T12:58:23;0.77;;;0.60;;
50379;SDS011;37474;59.468;18.040;2022-09-09T13:00:56;2.35;;;0.60;;
50379;SDS011;37474;59.468;18.040;2022-09-09T13:03:27;1.98;;;0.50;;
50379;SDS011;37474;59.468;18.040;2022-09-09T13:05:57;0.73;;;0.50;;
50379;SDS011;37474;59.468;18.040;2022-09-09T13:08:40;2.95;;;0.80;;
50379;SDS011;37474;59.468;18.040;2022-09-09T13:11:12;1.80;;;0.60;;
50379;SDS011;37474;59.468;18.040;2022-09-09T13:13:50;3.05;;;0.60;;
50379;SDS011;37474;59.468;18.040;2022-09-09T13:16:25;2.42;;;1.00;;
50379;SDS011;37474;59.468;18.040;2022-09-09T13:19:07;3.70;;;0.77;;
50379;SDS011;37474;59.468;18.040;2022-09-09T13:21:39;1.70;;;0.60;;
50379;SDS011;37474;59.468;18.040;2022-09-09T13:24:21;2.10;;;1.05;;
50379;SDS011;37474;59.468;18.040;2022-09-09T13:26:56;1.50;;;0.73;;
50379;SDS011;37474;59.468;18.040;2022-09-09T13:29:31;3.67;;;0.60;;
50379;SDS011;37474;59.468;18.040;2022-09-09T13:32:03;1.13;;;0.70;;
50379;SDS011;37474;59.468;18.040;2022-09-09T13:34:34;4.57;;;0.70;;
50379;SDS011;37474;59.468;18.040;2022-09-09T13:37:22;1.58;;;0.50;;
50379;SDS011;37474;59.468;18.040;2022-09-09T13:39:55;3.10;;;0.70;;
50379;SDS011;37474;59.468;18.040;2022-09-09T13:42:27;2.00;;;0.70;;
50379;SDS011;37474;59.468;18.040;2022-09-09T13:45:00;1.33;;;0.68;;
50379;SDS011;37474;59.468;18.040;2022-09-09T13:47:31;1.02;;;0.70;;
50379;SDS011;37474;59.468;18.040;2022-09-09T13:50:09;3.67;;;1.13;;
50379;SDS011;37474;59.468;18.040;2022-09-09T13:52:48;2.25;;;0.70;;
50379;SDS011;37474;59.468;18.040;2022-09-09T13:55:19;0.95;;;0.77;;
50379;SDS011;37474;59.468;18.040;2022-09-09T14:00:21;3.38;;;0.63;;
50379;SDS011;37474;59.468;18.040;2022-09-09T14:02:56;1.25;;;0.80;;
50379;SDS011;37474;59.468;18.040;2022-09-09T14:05:27;4.05;;;1.00;;
50379;SDS011;37474;59.468;18.040;2022-09-09T14:08:01;2.40;;;1.00;;
50379;SDS011;37474;59.468;18.040;2022-09-09T14:10:30;2.15;;;0.70;;
50379;SDS011;37474;59.468;18.040;2022-09-09T14:12:59;3.38;;;0.85;;
50379;SDS011;37474;59.468;18.040;2022-09-09T14:15:37;4.20;;;0.80;;
50379;SDS011;37474;59.468;18.040;2022-09-09T14:18:05;3.47;;;0.90;;
50379;SDS011;37474;59.468;18.040;2022-09-09T14:20:45;3.10;;;0.80;;
50379;SDS011;37474;59.468;18.040;2022-09-09T14:23:13;2.03;;;1.00;;
50379;SDS011;37474;59.468;18.040;2022-09-09T14:25:42;2.92;;;0.70;;
50379;SDS011;37474;59.468;18.040;2022-09-09T14:28:11;2.20;;;0.80;;
50379;SDS011;37474;59.468;18.040;2022-09-09T14:33:19;2.67;;;0.80;;
50379;SDS011;37474;59.468;18.040;2022-09-09T14:35:55;1.90;;;0.70;;
50379;SDS011;37474;59.468;18.040;2022-09-09T14:38:28;2.22;;;0.70;;
50379;SDS011;37474;59.468;18.040;2022-09-09T14:41:00;1.00;;;0.63;;
50379;SDS011;37474;59.468;18.040;2022-09-09T14:43:30;0.95;;;0.60;;
50379;SDS011;37474;59.468;18.040;2022-09-09T14:46:05;1.75;;;0.50;;
50379;SDS011;37474;59.468;18.040;2022-09-09T14:48:39;1.90;;;0.70;;
50379;SDS011;37474;59.468;18.040;2022-09-09T14:53:36;1.92;;;0.70;;
50379;SDS011;37474;59.468;18.040;2022-09-09T14:56:07;2.13;;;0.85;;
50379;SDS011;37474;59.468;18.040;2022-09-09T14:58:36;0.75;;;0.63;;
50379;SDS011;37474;59.468;18.040;2022-09-09T15:01:07;0.88;;;0.65;;
50379;SDS011;37474;59.468;18.040;2022-09-09T15:03:40;1.02;;;0.65;;
50379;SDS011;37474;59.468;18.040;2022-09-09T15:06:11;2.25;;;0.98;;
50379;SDS011;37474;59.468;18.040;2022-09-09T15:08:56;2.40;;;0.60;;
50379;SDS011;37474;59.468;18.040;2022-09-09T15:11:27;0.88;;;0.60;;
50379;SDS011;37474;59.468;18.040;2022-09-09T15:16:53;3.05;;;0.88;;
50379;SDS011;37474;59.468;18.040;2022-09-09T15:19:25;1.15;;;0.80;;
50379;SDS011;37474;59.468;18.040;2022-09-09T15:21:59;2.22;;;0.70;;
50379;SDS011;37474;59.468;18.040;2022-09-09T15:24:29;3.40;;;0.80;;
50379;SDS011;37474;59.468;18.040;2022-09-09T15:26:57;2.90;;;0.70;;
50379;SDS011;37474;59.468;18.040;2022-09-09T15:29:25;1.17;;;0.70;;
50379;SDS011;37474;59.468;18.040;2022-09-09T15:31:55;1.40;;;0.70;;
50379;SDS011;37474;59.468;18.040;2022-09-09T15:34:23;1.98;;;0.70;;
50379;SDS011;37474;59.468;18.040;2022-09-09T15:36:53;1.55;;;0.60;;
50379;SDS011;37474;59.468;18.040;2022-09-09T15:39:24;0.85;;;0.70;;
50379;SDS011;37474;59.468;18.040;2022-09-09T15:41:52;1.60;;;0.77;;
50379;SDS011;37474;59.468;18.040;2022-09-09T15:44:22;3.40;;;0.68;;